Terminal Aerodrome Forecast
Issued by NWS

Home | Current Version | Previous Version | Text Only | Print | Product List | Glossary On
Versions: 1 2 3 4 5 6 7 8 9 10 11 12 13 14 15 16 17 18 19 20 21 22 23 24 25 26 27 28 29 30 31 32
000
FTUS43 KGRR 230800 AAB
TAFJXN
TAF AMD
KJXN 230808Z 2308/2406 VRB03KT 1/4SM FG BKN002
     FM231100 VRB03KT 2SM BR BKN006
     FM231300 VRB03KT 3SM BR BKN006
     FM231500 22004KT P6SM SCT020=

USA.gov is the U.S. government's official web portal to all federal, state and local government web resources and services.